Time;durP1;ratioP1;P1;durP2;ratioP2;P2;SDS_P1;SDS_P2;PMS_P1;PMS_P2;Temp;Humidity;BMP_temperature;BMP_pressure;BME280_temperature;BME280_humidity;BME280_pressure;Samples;Min_cycle;Max_cycle;Signal;HPM_P1;HPM_P2
2021/04/20 00:00:22;;;;;;;1.00;0.75;;;;;;;5.45;91.05;100357.77;1790843;77;23332;-45
2021/04/20 00:02:50;;;;;;;1.02;1.00;;;;;;;5.41;91.08;100356.62;1753192;81;21114;-46
2021/04/20 00:05:20;;;;;;;0.62;0.62;;;;;;;5.42;91.15;100360.17;1753029;80;21159;-46
2021/04/20 00:07:48;;;;;;;0.10;0.10;;;;;;;5.41;91.26;100353.91;1724238;81;21134;-46
2021/04/20 00:10:18;;;;;;;1.05;1.02;;;;;;;5.38;91.42;100352.52;1753131;80;21726;-45
2021/04/20 00:12:47;;;;;;;0.65;0.65;;;;;;;5.38;91.62;100348.45;1723117;83;21613;-46
2021/04/20 00:15:22;;;;;;;1.98;1.22;;;;;;;5.38;91.77;100347.09;1707435;81;21213;-46
2021/04/20 00:18:05;;;;;;;1.65;0.82;;;;;;;5.41;91.85;100337.64;1846918;76;23330;-45
2021/04/20 00:20:33;;;;;;;0.13;0.13;;;;;;;5.35;91.87;100335.41;1793988;78;21150;-45
2021/04/20 00:23:00;;;;;;;0.75;0.75;;;;;;;5.32;91.86;100333.73;1762988;80;21153;-45
2021/04/20 00:25:28;;;;;;;6.55;2.45;;;;;;;5.30;91.88;100332.62;1770528;80;21149;-44
2021/04/20 00:27:55;;;;;;;1.55;1.45;;;;;;;5.29;91.89;100326.08;1785875;80;21102;-44
2021/04/20 00:30:23;;;;;;;1.65;1.55;;;;;;;5.25;91.93;100324.95;1755174;80;21000;-44
2021/04/20 00:32:50;;;;;;;0.15;0.15;;;;;;;5.22;91.96;100321.36;1786172;80;21146;-44
2021/04/20 00:35:17;;;;;;;3.55;0.95;;;;;;;5.18;92.00;100316.98;1772980;78;21125;-45
2021/04/20 00:37:45;;;;;;;1.15;1.15;;;;;;;5.13;92.02;100310.95;1755047;81;21153;-45
2021/04/20 00:40:14;;;;;;;4.28;2.30;;;;;;;5.11;92.05;100309.01;1755000;80;21142;-45
2021/04/20 00:42:54;;;;;;;12.33;6.60;;;;;;;5.06;92.07;100308.94;1754751;81;21169;-44
2021/04/20 00:45:29;;;;;;;2.22;2.12;;;;;;;4.99;92.08;100312.33;1755049;80;21141;-44
2021/04/20 00:47:56;;;;;;;4.15;3.80;;;;;;;4.93;92.12;100311.98;1754633;81;21125;-45
2021/04/20 00:50:29;;;;;;;3.62;1.57;;;;;;;4.85;92.20;100305.08;1754730;80;21137;-44
2021/04/20 00:52:57;;;;;;;1.05;1.05;;;;;;;4.80;92.28;100304.16;1762572;80;21165;-44
2021/04/20 00:55:25;;;;;;;1.25;1.10;;;;;;;4.71;92.38;100296.44;1785178;78;21094;-44
2021/04/20 00:57:53;;;;;;;0.93;0.93;;;;;;;4.64;92.48;100295.77;1785473;80;21118;-45
2021/04/20 01:00:24;;;;;;;1.47;0.68;;;;;;;4.57;92.62;100290.23;1785809;78;21698;-44
2021/04/20 01:02:52;;;;;;;2.10;1.43;;;;;;;4.50;92.83;100290.37;1785918;80;21169;-45
2021/04/20 01:05:24;;;;;;;1.65;1.15;;;;;;;4.43;92.95;100285.67;1755221;80;21161;-44
2021/04/20 01:07:58;;;;;;;1.30;1.20;;;;;;;4.37;93.04;100281.20;1785821;80;21134;-45
2021/04/20 01:10:26;;;;;;;0.10;0.10;;;;;;;4.27;93.18;100282.66;1785762;78;21726;-47
2021/04/20 01:12:53;;;;;;;0.62;0.62;;;;;;;4.20;93.34;100278.45;1785802;80;21158;-47
2021/04/20 01:15:21;;;;;;;1.67;1.57;;;;;;;4.12;93.58;100275.61;1784839;78;21165;-47
2021/04/20 01:17:48;;;;;;;0.65;0.65;;;;;;;4.05;93.78;100271.68;1732916;80;21469;-47
2021/04/20 01:20:16;;;;;;;0.20;0.20;;;;;;;4.00;94.00;100270.77;1754952;80;21102;-44
2021/04/20 01:22:45;;;;;;;0.10;0.10;;;;;;;3.94;94.31;100267.15;1754809;80;21165;-45
2021/04/20 01:25:14;;;;;;;0.57;0.57;;;;;;;3.90;94.58;100259.22;1754821;80;21154;-44
2021/04/20 01:27:41;;;;;;;0.20;0.20;;;;;;;3.86;94.88;100254.02;1757332;80;21817;-44
2021/04/20 01:30:11;;;;;;;0.50;0.50;;;;;;;3.82;95.16;100250.96;1754071;81;21143;-44
2021/04/20 01:32:39;;;;;;;0.70;0.70;;;;;;;3.79;95.34;100258.20;1754246;80;21445;-44
2021/04/20 01:35:09;;;;;;;0.13;0.13;;;;;;;3.75;95.39;100253.52;1756374;80;21488;-44
2021/04/20 01:37:36;;;;;;;0.35;0.35;;;;;;;3.67;95.54;100247.95;1754016;81;21141;-44
2021/04/20 01:40:05;;;;;;;0.10;0.10;;;;;;;3.61;95.74;100243.48;1756240;80;21640;-44
2021/04/20 01:42:33;;;;;;;0.45;0.45;;;;;;;3.57;96.02;100239.64;1723625;81;21135;-44
2021/04/20 01:45:07;;;;;;;2.47;1.05;;;;;;;3.52;96.21;100234.13;1756112;80;21170;-44
2021/04/20 01:47:34;;;;;;;0.65;0.65;;;;;;;3.48;96.47;100241.05;1755513;80;21137;-44
2021/04/20 01:50:03;;;;;;;1.80;0.72;;;;;;;3.43;96.67;100230.42;1754322;80;21622;-44
2021/04/20 01:52:31;;;;;;;0.90;0.90;;;;;;;3.39;96.86;100227.92;1774727;80;21118;-44
2021/04/20 01:54:58;;;;;;;2.72;1.65;;;;;;;3.37;97.01;100226.52;1754190;80;21130;-44
2021/04/20 01:57:25;;;;;;;0.40;0.40;;;;;;;3.33;97.19;100223.45;1754109;80;21090;-44
2021/04/20 01:59:53;;;;;;;0.93;0.93;;;;;;;3.31;97.34;100222.05;1699925;81;21125;-44
2021/04/20 02:02:20;;;;;;;1.47;1.15;;;;;;;3.26;97.41;100222.75;1748812;80;21173;-44
2021/04/20 02:04:47;;;;;;;2.33;0.53;;;;;;;3.21;97.57;100217.24;1784964;79;21149;-44
2021/04/20 02:07:17;;;;;;;0.65;0.65;;;;;;;3.17;97.68;100224.20;1785106;80;21106;-44
2021/04/20 02:09:44;;;;;;;1.70;1.60;;;;;;;3.13;97.76;100224.36;1785076;78;21107;-44
2021/04/20 02:12:13;;;;;;;1.15;1.12;;;;;;;3.07;97.87;100222.62;1784891;80;21149;-44
2021/04/20 02:14:40;;;;;;;0.20;0.20;;;;;;;3.00;97.94;100221.38;1756430;80;21479;-44
2021/04/20 02:17:08;;;;;;;0.50;0.50;;;;;;;2.91;97.88;100215.49;1757287;79;21130;-44
2021/04/20 02:19:35;;;;;;;0.20;0.20;;;;;;;2.84;98.07;100208.57;1737547;81;21486;-44
2021/04/20 02:22:03;;;;;;;0.55;0.55;;;;;;;2.82;98.45;100214.22;1763753;79;21123;-44
2021/04/20 02:24:31;;;;;;;0.23;0.23;;;;;;;2.79;98.64;100220.06;1763115;79;21125;-45
2021/04/20 02:26:59;;;;;;;3.75;1.17;;;;;;;2.74;98.76;100211.31;1770976;79;21799;-45
2021/04/20 02:29:27;;;;;;;0.85;0.53;;;;;;;2.70;98.84;100214.20;1794321;78;21125;-44
2021/04/20 02:31:54;;;;;;;0.33;0.33;;;;;;;2.66;98.97;100217.59;1794115;79;21393;-44
2021/04/20 02:34:22;;;;;;;0.47;0.47;;;;;;;2.62;99.05;100214.56;1792674;78;21556;-44
2021/04/20 02:36:51;;;;;;;4.10;1.30;;;;;;;2.57;99.11;100216.60;1773565;79;21513;-44
2021/04/20 02:39:19;;;;;;;0.70;0.68;;;;;;;2.51;99.14;100213.47;1787402;78;21518;-44
2021/04/20 02:41:48;;;;;;;0.20;0.20;;;;;;;2.45;99.27;100206.81;1754725;79;21173;-45
2021/04/20 02:44:16;;;;;;;1.20;0.55;;;;;;;2.40;99.39;100214.28;1758511;81;21138;-44
2021/04/20 02:46:44;;;;;;;0.60;0.60;;;;;;;2.34;99.49;100205.75;1758924;81;21138;-44
2021/04/20 02:49:12;;;;;;;0.20;0.20;;;;;;;2.31;99.62;100196.78;1718946;82;21161;-44
2021/04/20 02:51:40;;;;;;;0.33;0.33;;;;;;;2.27;99.76;100203.15;1728896;82;21142;-44
2021/04/20 02:54:07;;;;;;;0.00;0.00;;;;;;;2.25;99.86;100205.78;1703758;82;21222;-44
2021/04/20 02:56:36;;;;;;;0.20;0.20;;;;;;;2.21;99.87;100209.47;1704787;82;21152;-44
2021/04/20 02:59:06;;;;;;;0.20;0.20;;;;;;;2.18;99.87;100212.64;1729236;82;21603;-44
2021/04/20 03:01:37;;;;;;;0.65;0.20;;;;;;;2.13;99.92;100211.16;1729035;82;21193;-44
2021/04/20 03:04:05;;;;;;;0.35;0.35;;;;;;;2.08;100.00;100207.80;1729143;81;21703;-44
2021/04/20 03:06:32;;;;;;;2.85;1.70;;;;;;;2.05;100.00;100209.61;1729353;81;21147;-44
2021/04/20 03:09:00;;;;;;;0.60;0.60;;;;;;;2.02;100.00;100212.74;1732354;80;21118;-44
2021/04/20 03:11:34;;;;;;;0.20;0.20;;;;;;;1.99;100.00;100204.30;1686506;81;21171;-44
2021/04/20 03:16:44;;;;;;;0.62;0.62;;;;;;;2.02;100.00;100195.75;1887532;75;29066;-44
2021/04/20 03:19:11;;;;;;;0.75;0.75;;;;;;;1.99;100.00;100191.65;1765641;78;21151;-44
2021/04/20 03:21:39;;;;;;;5.67;1.55;;;;;;;2.01;100.00;100198.98;1816878;78;21138;-44
2021/04/20 03:24:07;;;;;;;2.10;1.70;;;;;;;2.02;100.00;100195.22;1790840;78;21101;-44
2021/04/20 03:26:39;;;;;;;1.05;0.95;;;;;;;2.01;100.00;100198.98;1788951;78;21122;-44
2021/04/20 03:29:09;;;;;;;1.55;1.45;;;;;;;1.99;100.00;100201.61;1816002;78;21501;-44
2021/04/20 03:31:38;;;;;;;0.93;0.90;;;;;;;1.98;100.00;100199.95;1788993;78;21138;-44
2021/04/20 03:34:25;;;;;;;2.20;2.08;;;;;;;1.97;100.00;100212.61;1820961;78;21225;-44
2021/04/20 03:37:04;;;;;;;1.12;1.12;;;;;;;1.97;100.00;100223.39;1768394;80;21146;-44
2021/04/20 03:39:36;;;;;;;1.22;1.12;;;;;;;1.98;100.00;100229.59;1779993;80;21154;-44
2021/04/20 03:42:13;;;;;;;3.15;2.52;;;;;;;2.03;100.00;100227.03;1780166;80;21320;-44
2021/04/20 03:44:55;;;;;;;2.80;2.65;;;;;;;2.10;100.00;100217.83;1787322;80;21218;-44
2021/04/20 03:47:26;;;;;;;1.15;1.15;;;;;;;2.20;100.00;100220.48;1767299;80;21138;-44
2021/04/20 03:49:55;;;;;;;0.20;0.20;;;;;;;2.28;100.00;100209.39;1768621;80;21158;-44
2021/04/20 03:52:26;;;;;;;1.77;1.65;;;;;;;2.38;100.00;100209.64;1792703;79;21143;-44
2021/04/20 03:54:54;;;;;;;1.05;1.05;;;;;;;2.54;100.00;100204.91;1806875;79;21177;-44
2021/04/20 03:57:21;;;;;;;1.02;0.42;;;;;;;2.76;100.00;100207.86;1783676;80;21130;-45
2021/04/20 03:59:49;;;;;;;1.92;1.30;;;;;;;3.00;100.00;100206.00;1755491;80;21134;-44
2021/04/20 04:02:16;;;;;;;0.50;0.40;;;;;;;3.19;100.00;100199.95;1761930;79;21573;-44
2021/04/20 04:04:44;;;;;;;1.02;1.02;;;;;;;3.35;100.00;100192.17;1815510;79;21118;-44
2021/04/20 04:07:13;;;;;;;1.98;1.00;;;;;;;3.55;100.00;100187.71;1760850;79;21123;-44
2021/04/20 04:09:41;;;;;;;1.00;0.47;;;;;;;3.70;100.00;100183.95;1786609;79;21557;-44
2021/04/20 04:12:09;;;;;;;0.75;0.75;;;;;;;3.84;100.00;100179.91;1795233;79;21946;-44
2021/04/20 04:14:37;;;;;;;0.50;0.50;;;;;;;3.99;100.00;100178.03;1739721;79;21157;-44
2021/04/20 04:17:09;;;;;;;1.65;1.45;;;;;;;4.15;100.00;100180.47;1784194;79;21418;-45
2021/04/20 04:19:43;;;;;;;1.65;1.52;;;;;;;4.31;100.00;100177.51;1796054;79;21126;-45
2021/04/20 04:22:19;;;;;;;0.45;0.42;;;;;;;4.44;100.00;100177.72;1783262;80;21119;-45
2021/04/20 04:24:57;;;;;;;1.98;1.85;;;;;;;4.56;100.00;100177.64;1785315;79;21145;-44
2021/04/20 04:27:27;;;;;;;1.90;1.60;;;;;;;4.67;100.00;100184.33;1782321;80;21148;-44
2021/04/20 04:29:57;;;;;;;2.10;1.92;;;;;;;4.80;100.00;100177.76;1803323;79;21201;-45
2021/04/20 04:32:24;;;;;;;1.98;1.02;;;;;;;4.93;100.00;100183.36;1785432;79;21157;-45
2021/04/20 04:34:52;;;;;;;0.20;0.20;;;;;;;5.06;100.00;100176.22;1776943;80;21141;-44
2021/04/20 04:37:19;;;;;;;1.42;1.32;;;;;;;5.23;100.00;100176.19;1756940;80;21618;-44
2021/04/20 04:39:48;;;;;;;0.80;0.80;;;;;;;5.44;100.00;100169.16;1819009;78;21117;-45
2021/04/20 04:42:15;;;;;;;2.30;1.17;;;;;;;5.66;100.00;100169.66;1820520;78;21115;-44
2021/04/20 04:44:47;;;;;;;2.40;2.20;;;;;;;5.86;100.00;100160.42;1818087;78;21488;-45
2021/04/20 04:47:14;;;;;;;3.60;1.05;;;;;;;6.03;100.00;100153.03;1792800;78;21483;-44
2021/04/20 04:49:42;;;;;;;2.85;2.33;;;;;;;6.23;100.00;100151.05;1785439;80;21767;-45
2021/04/20 04:52:13;;;;;;;1.35;1.10;;;;;;;6.40;100.00;100154.96;1788503;78;21601;-44
2021/04/20 04:54:42;;;;;;;3.05;1.45;;;;;;;6.53;100.00;100161.03;1806807;78;21106;-45
2021/04/20 04:57:12;;;;;;;1.92;1.82;;;;;;;6.66;100.00;100155.17;1751350;80;21162;-44
2021/04/20 04:59:39;;;;;;;1.12;1.12;;;;;;;6.83;100.00;100153.13;1784034;80;21433;-45
2021/04/20 05:02:07;;;;;;;1.07;1.07;;;;;;;7.02;100.00;100149.96;1786763;79;21551;-45
2021/04/20 05:04:35;;;;;;;3.02;1.45;;;;;;;7.20;99.97;100152.25;1766497;80;21588;-44
2021/04/20 05:07:03;;;;;;;1.17;0.85;;;;;;;7.34;99.36;100158.01;1784886;79;21631;-45
2021/04/20 05:09:30;;;;;;;0.75;0.75;;;;;;;7.47;98.66;100156.17;1786003;79;21117;-45
2021/04/20 05:11:58;;;;;;;1.20;1.17;;;;;;;7.58;97.73;100150.23;1803946;79;21127;-45
2021/04/20 05:14:25;;;;;;;1.07;1.07;;;;;;;7.71;97.21;100146.99;1783989;79;21598;-44
2021/04/20 05:16:54;;;;;;;0.82;0.82;;;;;;;7.89;96.71;100150.33;1753549;80;21660;-45
2021/04/20 05:19:28;;;;;;;0.62;0.62;;;;;;;8.00;95.06;100142.45;1793467;80;21526;-45
2021/04/20 05:21:57;;;;;;;0.28;0.28;;;;;;;8.06;94.34;100138.66;1760593;81;21128;-45
2021/04/20 05:24:24;;;;;;;1.32;1.27;;;;;;;8.18;93.77;100139.22;1796029;78;21150;-45
2021/04/20 05:26:53;;;;;;;1.65;0.60;;;;;;;8.29;92.77;100131.86;1791760;80;21173;-45
2021/04/20 05:29:20;;;;;;;0.40;0.40;;;;;;;8.40;91.36;100134.06;1824195;78;21127;-45
2021/04/20 05:31:49;;;;;;;2.02;1.50;;;;;;;8.50;91.02;100128.61;1792333;80;21126;-45
2021/04/20 05:34:19;;;;;;;0.65;0.65;;;;;;;8.64;90.18;100128.08;1825768;78;21141;-45
2021/04/20 05:36:48;;;;;;;0.20;0.20;;;;;;;8.77;89.25;100128.86;1824298;78;21414;-45
2021/04/20 05:39:16;;;;;;;0.50;0.50;;;;;;;8.88;88.34;100126.92;1817991;78;21521;-45
2021/04/20 05:41:44;;;;;;;1.27;0.68;;;;;;;9.01;87.32;100127.73;1820153;77;21122;-45
2021/04/20 05:44:13;;;;;;;1.77;1.50;;;;;;;9.14;86.66;100123.05;1816174;78;21114;-45
2021/04/20 05:46:46;;;;;;;1.77;1.67;;;;;;;9.31;86.10;100126.80;1826407;78;21547;-45
2021/04/20 05:49:18;;;;;;;2.95;1.47;;;;;;;9.45;85.11;100115.56;1789809;79;21110;-45
2021/04/20 05:51:46;;;;;;;0.90;0.57;;;;;;;9.60;84.16;100115.23;1777964;79;21189;-45
2021/04/20 05:54:14;;;;;;;1.10;0.82;;;;;;;9.76;83.40;100125.50;1793470;80;21110;-45
2021/04/20 05:56:43;;;;;;;1.65;1.47;;;;;;;9.92;82.81;100128.41;1793167;80;21118;-45
2021/04/20 05:59:15;;;;;;;2.30;0.93;;;;;;;10.07;81.46;100120.67;1802018;78;21134;-45
2021/04/20 06:01:43;;;;;;;0.88;0.50;;;;;;;10.15;80.24;100113.23;1788361;80;21777;-45
2021/04/20 06:04:11;;;;;;;4.10;1.20;;;;;;;10.27;79.88;100115.05;1792338;79;21407;-45
2021/04/20 06:06:40;;;;;;;1.27;1.17;;;;;;;10.46;79.15;100111.63;1817814;78;21118;-45
2021/04/20 06:09:09;;;;;;;2.30;2.08;;;;;;;10.61;78.22;100109.31;1817869;78;21129;-45
2021/04/20 06:11:39;;;;;;;1.25;1.15;;;;;;;10.73;77.42;100101.54;1800598;78;21140;-45
2021/04/20 06:14:07;;;;;;;0.65;0.65;;;;;;;10.84;77.14;100092.70;1788174;78;21224;-45
2021/04/20 06:16:36;;;;;;;0.65;0.65;;;;;;;10.95;76.08;100092.84;1804351;78;21177;-45
2021/04/20 06:19:05;;;;;;;0.78;0.72;;;;;;;11.05;75.62;100084.52;1793705;78;21216;-45
2021/04/20 06:21:34;;;;;;;1.87;0.62;;;;;;;11.16;74.94;100079.20;1806694;78;21110;-45
2021/04/20 06:24:04;;;;;;;2.27;1.17;;;;;;;11.28;74.36;100079.34;1799933;78;21118;-45
2021/04/20 06:26:36;;;;;;;1.12;1.02;;;;;;;11.38;74.46;100076.47;1787361;78;21129;-45
2021/04/20 06:29:05;;;;;;;0.90;0.90;;;;;;;11.52;73.98;100073.28;1804812;78;21206;-45
2021/04/20 06:31:34;;;;;;;1.17;0.55;;;;;;;11.62;73.09;100061.34;1781428;78;21142;-45
2021/04/20 06:34:01;;;;;;;1.20;0.53;;;;;;;11.65;72.27;100063.52;1828575;78;21422;-45
2021/04/20 06:36:29;;;;;;;2.15;1.52;;;;;;;11.63;71.60;100065.17;1824288;78;21138;-45
2021/04/20 06:38:56;;;;;;;0.70;0.70;;;;;;;11.46;70.06;100063.50;1800793;78;21174;-45
2021/04/20 06:41:26;;;;;;;4.12;1.00;;;;;;;11.12;71.09;100065.84;1823433;78;21114;-45
2021/04/20 06:44:20;;;;;;;0.67;0.67;;;;;;;10.96;71.26;100061.68;1791235;78;21213;-45
2021/04/20 06:46:54;;;;;;;0.85;0.50;;;;;;;10.86;72.33;100057.70;1814870;78;21123;-45
2021/04/20 06:49:32;;;;;;;1.90;1.50;;;;;;;10.88;72.67;100056.83;1790983;78;21094;-45
2021/04/20 06:52:17;;;;;;;3.05;1.62;;;;;;;11.03;72.51;100055.84;1837998;76;22749;-45
2021/04/20 06:55:08;;;;;;;0.95;0.80;;;;;;;11.10;73.00;100058.50;1800209;78;21145;-45
2021/04/20 06:57:42;;;;;;;0.90;0.62;;;;;;;11.24;72.40;100060.52;1809991;78;26817;-45
2021/04/20 07:00:17;;;;;;;0.85;0.68;;;;;;;11.44;71.38;100072.55;1813173;78;21126;-45
2021/04/20 07:03:00;;;;;;;1.35;1.17;;;;;;;11.50;71.04;100065.91;1805281;78;21544;-45
2021/04/20 07:05:50;;;;;;;0.37;0.37;;;;;;;11.60;71.26;100063.59;1788778;78;21134;-45
2021/04/20 07:08:25;;;;;;;0.45;0.45;;;;;;;11.80;70.52;100056.44;1808299;78;21129;-45
2021/04/20 07:10:54;;;;;;;1.37;0.62;;;;;;;12.01;69.59;100051.47;1817914;78;21165;-45
2021/04/20 07:13:24;;;;;;;0.50;0.50;;;;;;;12.11;68.45;100055.97;1810771;78;21125;-45
2021/04/20 07:15:58;;;;;;;0.68;0.57;;;;;;;12.14;67.01;100043.61;1812199;78;21157;-45
2021/04/20 07:18:59;;;;;;;0.68;0.65;;;;;;;12.13;66.10;100051.02;1797617;78;21074;-45
2021/04/20 07:22:01;;;;;;;1.82;1.22;;;;;;;12.03;66.29;100045.71;1815773;78;21102;-45
2021/04/20 07:24:33;;;;;;;1.02;0.70;;;;;;;11.99;67.63;100044.14;1786867;78;21154;-45
2021/04/20 07:27:25;;;;;;;;;;;;;;;12.19;66.33;100044.89;1740542;78;21141;-45
2021/04/20 07:30:18;;;;;;;0.75;0.75;;;;;;;12.29;66.35;100044.73;1785732;80;20269;-45
2021/04/20 07:33:11;;;;;;;0.72;0.62;;;;;;;12.38;65.59;100039.37;1796493;78;21129;-45
2021/04/20 07:35:59;;;;;;;0.40;0.40;;;;;;;12.37;64.45;100040.49;1818312;78;21098;-45
2021/04/20 07:38:48;;;;;;;2.37;0.57;;;;;;;12.40;64.55;100039.32;1815852;78;21126;-45
2021/04/20 07:41:45;;;;;;;0.13;0.13;;;;;;;12.64;65.18;100032.88;1816850;78;21138;-45
2021/04/20 07:44:42;;;;;;;1.85;0.57;;;;;;;12.89;64.72;100020.59;1811354;78;21185;-45
2021/04/20 07:47:11;;;;;;;3.17;1.52;;;;;;;13.16;64.18;100014.84;1804288;78;21150;-45
2021/04/20 07:50:14;;;;;;;0.40;0.40;;;;;;;13.55;63.03;100009.59;1766037;80;21161;-45
2021/04/20 07:53:11;;;;;;;3.60;0.42;;;;;;;13.93;62.10;100003.73;1806000;78;21551;-45
2021/04/20 07:55:56;;;;;;;1.22;1.00;;;;;;;14.33;59.80;100012.63;1766847;78;21154;-45
2021/04/20 07:58:24;;;;;;;0.53;0.45;;;;;;;14.63;58.60;100012.39;1791772;78;21540;-45
2021/04/20 08:01:03;;;;;;;1.67;1.45;;;;;;;14.61;55.88;100005.02;1763560;78;21157;-45
2021/04/20 08:03:54;;;;;;;0.85;0.68;;;;;;;14.41;58.13;100003.06;1813004;78;21150;-45
2021/04/20 08:06:26;;;;;;;0.28;0.28;;;;;;;14.32;58.07;100004.95;1785190;78;21579;-45
2021/04/20 08:09:19;;;;;;;0.57;0.45;;;;;;;14.45;58.42;100001.85;1817540;78;21612;-45
2021/04/20 08:11:54;;;;;;;0.47;0.23;;;;;;;14.59;57.63;99995.73;1803246;78;21437;-46
2021/04/20 08:14:40;;;;;;;0.95;0.95;;;;;;;14.58;56.57;99989.96;1816252;78;21125;-46
2021/04/20 08:17:11;;;;;;;0.42;0.42;;;;;;;14.61;55.94;99982.48;1817343;78;21141;-45
2021/04/20 08:20:03;;;;;;;0.70;0.50;;;;;;;14.63;56.03;99984.32;1812517;78;21594;-45
2021/04/20 08:22:32;;;;;;;0.57;0.57;;;;;;;14.68;55.02;99982.56;1797729;77;21161;-45
2021/04/20 08:25:10;;;;;;;0.57;0.57;;;;;;;14.70;55.07;99977.56;1810723;77;21090;-45
2021/04/20 08:28:22;;;;;;;1.25;1.15;;;;;;;14.84;54.84;99973.56;1775813;78;21535;-46
2021/04/20 08:31:16;;;;;;;1.12;1.12;;;;;;;14.95;53.75;99976.81;1792899;78;21130;-45
2021/04/20 08:33:47;;;;;;;0.17;0.17;;;;;;;15.04;52.84;99976.28;1817348;78;21257;-45
2021/04/20 09:29:04;;;;;;;0.60;0.60;;;;;;;15.18;51.15;99915.61;1748722;81;21174;-40
2021/04/20 09:31:46;;;;;;;1.10;0.62;;;;;;;15.35;50.66;99913.40;1887520;76;22681;-41
2021/04/20 09:34:16;;;;;;;0.30;0.30;;;;;;;15.20;49.88;99911.14;1834536;77;21111;-40
2021/04/20 09:36:44;;;;;;;1.10;1.02;;;;;;;15.07;51.00;99900.53;1793348;78;21528;-40
2021/04/20 09:39:11;;;;;;;0.70;0.60;;;;;;;15.09;50.41;99912.03;1789804;78;21171;-41
2021/04/20 09:41:43;;;;;;;0.70;0.53;;;;;;;15.09;51.02;99905.73;1724406;80;21097;-41
2021/04/20 09:44:38;;;;;;;3.12;0.78;;;;;;;15.13;50.61;99896.48;1796665;79;21575;-40
2021/04/20 09:47:40;;;;;;;1.02;1.02;;;;;;;15.13;51.35;99897.05;1821573;78;21382;-40
2021/04/20 09:50:29;;;;;;;1.53;0.50;;;;;;;15.18;50.54;99883.12;1824928;78;21138;-41
2021/04/20 09:53:28;;;;;;;0.40;0.35;;;;;;;15.18;50.54;99883.12;1819424;77;21794;-42
2021/04/20 09:56:04;;;;;;;1.65;0.93;;;;;;;15.25;49.88;99873.24;1824228;78;21079;-40
2021/04/20 09:58:32;;;;;;;1.10;1.10;;;;;;;15.31;50.92;99871.16;1824758;77;21068;-40
2021/04/20 10:01:26;;;;;;;0.10;0.10;;;;;;;15.41;50.03;99869.45;1792970;78;21083;-41
2021/04/20 10:04:09;;;;;;;0.55;0.35;;;;;;;15.51;51.05;99862.80;1824818;77;21146;-40
2021/04/20 10:06:55;;;;;;;0.47;0.30;;;;;;;15.76;50.37;99872.16;1819151;78;21458;-40
2021/04/20 10:09:42;;;;;;;1.85;1.75;;;;;;;15.91;49.50;99866.11;1769135;78;21158;-40
2021/04/20 10:12:39;;;;;;;0.37;0.37;;;;;;;15.99;48.22;99870.55;1815581;79;21111;-40
2021/04/20 10:15:46;;;;;;;0.78;0.42;;;;;;;15.84;48.41;99860.88;1815318;79;21107;-41
2021/04/20 10:18:29;;;;;;;1.55;0.98;;;;;;;15.82;48.86;99861.19;1815822;79;21533;-40
2021/04/20 10:21:31;;;;;;;0.53;0.53;;;;;;;16.12;48.10;99864.83;1847508;76;22305;-42
2021/04/20 10:24:20;;;;;;;1.25;0.47;;;;;;;16.24;47.53;99855.84;1799838;78;21150;-41
2021/04/20 10:26:56;;;;;;;0.40;0.40;;;;;;;16.58;47.58;99855.42;1753573;80;21161;-41
2021/04/20 10:29:43;;;;;;;0.60;0.47;;;;;;;16.81;46.54;99846.86;1777397;80;21670;-40
2021/04/20 10:32:25;;;;;;;0.57;0.57;;;;;;;16.85;47.33;99851.95;1747043;80;21507;-41
2021/04/20 10:34:54;;;;;;;0.98;0.98;;;;;;;16.89;45.58;99854.25;1781663;80;21113;-41
2021/04/20 10:37:37;;;;;;;1.07;0.90;;;;;;;16.53;45.68;99861.13;1781822;80;21398;-41
2021/04/20 10:40:14;;;;;;;1.37;1.27;;;;;;;16.19;49.47;99858.78;1775764;80;21133;-41
2021/04/20 10:42:46;;;;;;;0.50;0.50;;;;;;;16.10;47.83;99856.66;1777777;80;21170;-41
2021/04/20 10:45:12;;;;;;;0.40;0.40;;;;;;;15.78;49.09;99854.74;1779490;80;21120;-41
2021/04/20 10:47:42;;;;;;;1.02;0.72;;;;;;;15.63;49.77;99856.63;1783731;80;21145;-42
2021/04/20 10:50:14;;;;;;;0.70;0.62;;;;;;;15.79;50.75;99854.97;1715293;83;21146;-42
2021/04/20 10:52:42;;;;;;;0.90;0.80;;;;;;;16.02;48.49;99858.31;1681606;81;21203;-41
2021/04/20 10:55:10;;;;;;;0.95;0.93;;;;;;;16.06;49.21;99850.18;1733144;81;21149;-41
2021/04/20 10:57:39;;;;;;;0.80;0.28;;;;;;;16.10;48.35;99847.02;1702474;81;21125;-41
2021/04/20 11:00:08;;;;;;;0.42;0.42;;;;;;;16.21;48.19;99848.23;1733190;82;21102;-41
2021/04/20 11:02:39;;;;;;;0.98;0.88;;;;;;;16.33;48.43;99848.34;1730879;82;21136;-42
2021/04/20 11:05:08;;;;;;;0.20;0.20;;;;;;;16.57;48.07;99844.16;1733092;82;21580;-41
2021/04/20 11:07:43;;;;;;;0.30;0.30;;;;;;;16.80;47.54;99838.36;1732897;82;21160;-41
2021/04/20 11:10:12;;;;;;;1.87;0.53;;;;;;;16.80;47.63;99834.22;1732899;82;21150;-41
2021/04/20 11:12:47;;;;;;;0.20;0.20;;;;;;;16.57;48.01;99829.00;1731014;80;21164;-41
2021/04/20 11:15:26;;;;;;;0.98;0.95;;;;;;;16.66;48.07;99826.97;1729496;82;21503;-42
2021/04/20 11:18:03;;;;;;;1.27;1.00;;;;;;;16.68;47.07;99831.58;1732755;82;21154;-41
2021/04/20 11:20:47;;;;;;;0.57;0.57;;;;;;;16.40;46.02;99829.11;1714714;83;21585;-40
2021/04/20 11:23:26;;;;;;;0.37;0.30;;;;;;;15.88;47.00;99835.67;1722431;83;21547;-42
2021/04/20 11:26:09;;;;;;;0.60;0.60;;;;;;;15.44;48.67;99832.99;1663942;85;21193;-41
2021/04/20 11:28:48;;;;;;;0.95;0.53;;;;;;;15.19;49.36;99831.09;1757105;80;21157;-41
2021/04/20 11:31:30;;;;;;;0.88;0.72;;;;;;;15.13;50.09;99823.55;1755592;81;21173;-42
2021/04/20 11:34:02;;;;;;;0.75;0.75;;;;;;;14.96;50.69;99827.14;1754939;80;21146;-41
2021/04/20 11:36:45;;;;;;;0.15;0.15;;;;;;;14.74;51.46;99838.30;1887576;76;22702;-39
2021/04/20 11:39:27;;;;;;;1.72;0.65;;;;;;;14.36;52.11;99834.70;1817613;78;21161;-41
2021/04/20 11:41:58;;;;;;;5.03;1.42;;;;;;;13.94;53.86;99836.98;1815741;78;21417;-41
2021/04/20 11:44:47;;;;;;;0.35;0.35;;;;;;;13.45;54.80;99845.16;1808602;78;21152;-40
2021/04/20 11:47:14;;;;;;;0.62;0.60;;;;;;;13.09;56.51;99835.58;1806783;78;21119;-40
2021/04/20 11:50:00;;;;;;;0.78;0.72;;;;;;;12.83;57.70;99829.33;1755219;81;21094;-40
2021/04/20 11:52:30;;;;;;;1.05;0.60;;;;;;;12.68;58.57;99831.86;1761783;80;21119;-40
2021/04/20 11:55:10;;;;;;;1.22;0.65;;;;;;;12.55;59.43;99826.39;1778497;80;21099;-40
2021/04/20 11:57:42;;;;;;;0.62;0.53;;;;;;;12.45;60.21;99824.12;1785045;80;21968;-40
2021/04/20 12:00:11;;;;;;;0.62;0.60;;;;;;;12.38;60.33;99822.35;1757033;81;21145;-40
2021/04/20 12:02:39;;;;;;;0.60;0.60;;;;;;;12.32;60.51;99820.85;1788040;80;21213;-40
2021/04/20 12:05:12;;;;;;;6.85;0.55;;;;;;;12.29;61.03;99813.25;1757828;80;21102;-40
2021/04/20 12:07:40;;;;;;;1.65;0.40;;;;;;;12.26;60.97;99811.10;1753551;81;21154;-40
2021/04/20 12:10:16;;;;;;;1.50;1.40;;;;;;;12.24;61.23;99810.63;1787937;80;21147;-41
2021/04/20 12:12:51;;;;;;;5.05;1.00;;;;;;;12.23;61.24;99814.46;1719080;81;21587;-41
2021/04/20 12:15:19;;;;;;;4.67;0.95;;;;;;;12.21;61.16;99805.17;1756840;81;21137;-40
2021/04/20 12:17:47;;;;;;;0.82;0.65;;;;;;;12.22;61.04;99804.07;1756657;81;21124;-41
2021/04/20 12:20:19;;;;;;;1.37;1.27;;;;;;;12.24;61.75;99795.56;1768922;80;21138;-40
2021/04/20 12:22:53;;;;;;;1.47;1.37;;;;;;;12.28;61.44;99798.48;1785708;80;21469;-40
2021/04/20 12:25:21;;;;;;;0.45;0.45;;;;;;;12.30;61.37;99792.95;1786973;80;21441;-41
2021/04/20 12:27:57;;;;;;;1.07;1.07;;;;;;;12.33;60.78;99793.70;1754949;81;21099;-40
2021/04/20 12:30:25;;;;;;;0.88;0.88;;;;;;;12.37;60.99;99798.83;1785270;80;21473;-40
2021/04/20 12:32:52;;;;;;;2.60;2.00;;;;;;;12.41;60.69;99793.53;1788491;80;21130;-41
2021/04/20 12:35:30;;;;;;;2.00;0.80;;;;;;;12.47;60.70;99794.48;1783548;79;21458;-40
2021/04/20 12:37:59;;;;;;;2.65;0.82;;;;;;;12.57;60.05;99783.05;1753017;81;21226;-41
2021/04/20 12:40:28;;;;;;;0.30;0.28;;;;;;;12.68;60.45;99777.04;1771903;80;21189;-41
2021/04/20 12:43:00;;;;;;;2.80;0.62;;;;;;;12.84;60.67;99785.70;1743382;80;21568;-41
2021/04/20 12:45:36;;;;;;;0.78;0.78;;;;;;;13.03;58.65;99781.95;1759890;79;21181;-40
2021/04/20 12:47:59;;;;;;;0.78;0.78;;;;;;;13.23;57.95;99778.72;1747090;81;21692;-41
2021/04/20 12:50:33;;;;;;;0.68;0.68;;;;;;;13.46;57.77;99774.03;1750958;81;21600;-40
2021/04/20 12:53:05;;;;;;;0.23;0.23;;;;;;;13.69;55.88;99771.22;1788201;78;21126;-40
2021/04/20 12:55:35;;;;;;;2.02;0.62;;;;;;;13.84;55.89;99775.48;1730186;81;21134;-42